createdAt,value
2022-11-14T00:03:40.700Z,97150.56
2022-11-14T00:07:59.377Z,97159.94
2022-11-14T00:12:18.333Z,97157.66
2022-11-14T00:16:37.178Z,97148.84
2022-11-14T00:20:58.813Z,97150.56
2022-11-14T00:25:17.406Z,97148.31
2022-11-14T00:29:35.870Z,97129.75
2022-11-14T00:33:54.469Z,97131.91
2022-11-14T00:38:17.645Z,97129.72
2022-11-14T00:42:37.744Z,97125.34
2022-11-14T00:46:56.750Z,97123.75
2022-11-14T00:51:16.118Z,97122.91
2022-11-14T00:55:37.761Z,97133.50
2022-11-14T00:59:56.637Z,97123.75
2022-11-14T01:04:15.354Z,97123.72
2022-11-14T01:08:34.420Z,97122.94
2022-11-14T01:12:55.769Z,97105.88
2022-11-14T01:17:14.583Z,97111.97
2022-11-14T01:21:33.474Z,97118.13
2022-11-14T01:25:52.034Z,97115.09
2022-11-14T01:30:15.772Z,97104.78
2022-11-14T01:34:34.412Z,97095.50
2022-11-14T01:38:57.103Z,97104.81
2022-11-14T01:43:31.651Z,97103.22
2022-11-14T01:47:52.987Z,97085.97
2022-11-14T01:52:17.561Z,97090.81
2022-11-14T01:56:41.038Z,97092.28
2022-11-14T02:01:00.944Z,97079.34
2022-11-14T02:05:22.795Z,97080.94
2022-11-14T02:09:45.697Z,97074.47
2022-11-14T02:14:04.845Z,97066.38
2022-11-14T02:18:23.315Z,97062.34
2022-11-14T02:22:45.728Z,97059.09
2022-11-14T02:27:05.219Z,97052.97
2022-11-14T02:31:23.883Z,97061.53
2022-11-14T02:35:42.684Z,97053.78
2022-11-14T02:40:04.124Z,97051.13
2022-11-14T02:44:22.895Z,97057.88
2022-11-14T02:48:41.833Z,97060.69
2022-11-14T02:53:00.441Z,97060.25
2022-11-14T02:57:21.340Z,97038.38
2022-11-14T03:01:40.419Z,97050.75
2022-11-14T03:06:02.641Z,97036.00
2022-11-14T03:10:21.902Z,97033.19
2022-11-14T03:14:43.789Z,97034.81
2022-11-14T03:19:02.546Z,97029.94
2022-11-14T03:23:21.272Z,97029.56
2022-11-14T03:27:40.061Z,97017.81
2022-11-14T03:32:01.165Z,97027.94
2022-11-14T03:36:19.789Z,97022.06
2022-11-14T03:40:42.079Z,97030.34
2022-11-14T03:45:00.822Z,97026.75
2022-11-14T03:49:22.347Z,97020.25
2022-11-14T03:53:41.097Z,97025.25
2022-11-14T03:57:59.666Z,97021.19
2022-11-14T04:02:18.482Z,97011.66
2022-11-14T04:06:39.711Z,97017.38
2022-11-14T04:10:58.377Z,97017.38
2022-11-14T04:15:16.821Z,97014.75
2022-11-14T04:19:35.656Z,97017.16
2022-11-14T04:23:57.116Z,97017.34
2022-11-14T04:28:16.859Z,97012.09
2022-11-14T04:32:35.674Z,97011.56
2022-11-14T04:36:54.714Z,97011.09
2022-11-14T04:41:16.063Z,96995.88
2022-11-14T04:45:34.646Z,97015.75
2022-11-14T04:49:53.364Z,97014.97
2022-11-14T04:54:12.219Z,97026.91
2022-11-14T04:58:33.486Z,97019.22
2022-11-14T05:02:52.552Z,97005.25
2022-11-14T05:07:11.056Z,96989.50
2022-11-14T05:11:29.912Z,97002.78
2022-11-14T05:15:51.347Z,97007.22
2022-11-14T05:20:11.649Z,97015.94
2022-11-14T05:24:30.383Z,97003.81
2022-11-14T05:28:48.913Z,97028.28
2022-11-14T05:33:10.053Z,97024.53
2022-11-14T05:37:28.793Z,97031.53
2022-11-14T05:41:47.267Z,97034.63
2022-11-14T05:46:08.957Z,97017.78
2022-11-14T05:50:30.282Z,97025.09
2022-11-14T05:54:48.911Z,97033.22
2022-11-14T05:59:07.826Z,97034.63
2022-11-14T06:03:26.651Z,97028.31
2022-11-14T06:07:48.948Z,97030.34
2022-11-14T06:12:08.689Z,97031.59
2022-11-14T06:16:27.197Z,97060.41
2022-11-14T06:20:45.674Z,97072.75
2022-11-14T06:25:07.249Z,97062.84
2022-11-14T06:29:29.103Z,97047.81
2022-11-14T06:33:50.632Z,97070.94
2022-11-14T06:38:09.499Z,97066.88
2022-11-14T06:42:30.972Z,97077.41
2022-11-14T06:46:49.481Z,97046.38
2022-11-14T06:51:09.849Z,97099.03
2022-11-14T06:55:28.479Z,97100.44
2022-11-14T06:59:49.584Z,97087.47
2022-11-14T07:04:08.369Z,97100.00
2022-11-14T07:08:27.760Z,97104.00
2022-11-14T07:13:33.141Z,97051.56
2022-11-14T07:17:55.241Z,97049.59
2022-11-14T07:22:14.399Z,97073.09
2022-11-14T07:26:33.501Z,97082.44
2022-11-14T07:30:52.437Z,97045.66
2022-11-14T07:35:23.570Z,97062.25
2022-11-14T07:39:46.727Z,97067.13
2022-11-14T07:44:26.883Z,97071.97
2022-11-14T07:48:46.134Z,97068.19
2022-11-14T07:53:07.594Z,97077.81
2022-11-14T07:57:26.733Z,97076.19
2022-11-14T08:01:45.205Z,97071.88
2022-11-14T08:06:04.799Z,97068.44
2022-11-14T08:10:29.680Z,97069.81
2022-11-14T08:14:51.109Z,97038.06
2022-11-14T08:19:10.246Z,97052.09
2022-11-14T08:23:28.637Z,97061.47
2022-11-14T08:27:50.111Z,97048.34
2022-11-14T08:32:08.839Z,97054.69
2022-11-14T08:36:27.853Z,97058.66
2022-11-14T08:40:47.049Z,97029.13
2022-11-14T08:45:11.225Z,97066.19
2022-11-14T08:49:31.621Z,97027.56
2022-11-14T08:53:52.525Z,97005.41
2022-11-14T08:58:13.383Z,96981.41
2022-11-14T09:02:35.633Z,97027.81
2022-11-14T09:06:55.200Z,97037.41
2022-11-14T09:11:18.982Z,97003.75
2022-11-14T09:15:38.763Z,97006.38
2022-11-14T09:20:01.023Z,97008.88
2022-11-14T09:24:20.084Z,97007.41
2022-11-14T09:28:41.098Z,96998.34
2022-11-14T09:33:11.073Z,97012.28
2022-11-14T09:37:34.678Z,97044.75
2022-11-14T09:42:17.353Z,97015.56
2022-11-14T09:46:45.388Z,97039.13
2022-11-14T09:51:13.126Z,97041.19
2022-11-14T09:55:37.697Z,97054.03
2022-11-14T10:00:03.745Z,97017.56
2022-11-14T10:04:40.633Z,97008.28
2022-11-14T10:09:38.597Z,97026.63
2022-11-14T10:14:41.175Z,97012.38
2022-11-14T10:19:18.954Z,97029.69
2022-11-14T10:23:48.907Z,97027.69
2022-11-14T10:28:49.839Z,97008.75
2022-11-14T10:33:52.830Z,96995.75
2022-11-14T10:38:23.051Z,97011.47
2022-11-14T10:42:59.175Z,97041.25
2022-11-14T10:47:38.789Z,97018.13
2022-11-14T10:58:07.209Z,96973.34
2022-11-14T11:03:08.805Z,96917.41
2022-11-14T11:12:49.804Z,97018.38
2022-11-14T11:17:21.258Z,97013.53
2022-11-14T11:21:52.829Z,97007.91
2022-11-14T11:26:22.897Z,96984.66
2022-11-14T11:30:42.332Z,97011.16
2022-11-14T11:35:03.896Z,97010.94
2022-11-14T11:39:30.871Z,97002.03
2022-11-14T11:43:58.047Z,96990.75
2022-11-14T11:48:22.337Z,96984.69
2022-11-14T11:52:51.744Z,96964.97
2022-11-14T11:57:22.078Z,96969.41
2022-11-14T12:01:43.650Z,96979.84
2022-11-14T12:06:18.048Z,96983.97
2022-11-14T12:11:30.236Z,96935.00
2022-11-14T12:22:45.212Z,96968.19
2022-11-14T12:54:58.086Z,96883.84
2022-11-14T13:11:11.365Z,96991.88
2022-11-14T13:22:03.129Z,96985.09
2022-11-14T13:27:24.799Z,96958.94
2022-11-14T13:31:54.398Z,96965.59
2022-11-14T13:42:18.370Z,96951.78
2022-11-14T13:47:12.061Z,96972.63
2022-11-14T13:51:48.220Z,96971.47
2022-11-14T13:56:27.360Z,96963.53
2022-11-14T14:01:14.638Z,96958.06
2022-11-14T14:06:03.987Z,96961.81
2022-11-14T14:10:38.663Z,96942.97
2022-11-14T14:15:15.516Z,96935.28
2022-11-14T14:19:58.799Z,96946.97
2022-11-14T14:24:52.705Z,96938.53
2022-11-14T14:29:30.169Z,96933.78
2022-11-14T14:33:52.032Z,96951.03
2022-11-14T14:38:26.041Z,96949.81
2022-11-14T14:42:49.894Z,96955.94
2022-11-14T14:47:20.744Z,96962.34
2022-11-14T14:51:42.916Z,96961.53
2022-11-14T14:56:07.629Z,96938.06
2022-11-14T15:00:29.828Z,96957.13
2022-11-14T15:04:51.493Z,96947.66
2022-11-14T15:09:17.885Z,96921.31
2022-11-14T15:13:40.231Z,96942.72
2022-11-14T15:18:00.919Z,96941.41
2022-11-14T15:22:29.301Z,96941.03
2022-11-14T15:26:50.706Z,96941.88
2022-11-14T15:31:24.230Z,96942.00
2022-11-14T15:35:44.219Z,96926.56
2022-11-14T15:40:20.718Z,96939.44
2022-11-14T15:44:42.316Z,96945.09
2022-11-14T15:49:09.685Z,96937.41
2022-11-14T15:53:33.416Z,96940.66
2022-11-14T15:58:13.601Z,96940.13
2022-11-14T16:02:34.588Z,96927.28
2022-11-14T16:06:55.885Z,96931.56
2022-11-14T16:11:15.415Z,96936.34
2022-11-14T16:15:34.789Z,96928.28
2022-11-14T16:19:53.342Z,96929.34
2022-11-14T16:24:19.725Z,96941.09
2022-11-14T16:28:39.129Z,96940.00
2022-11-14T16:32:57.788Z,96934.66
2022-11-14T16:37:17.547Z,96942.63
2022-11-14T16:41:38.958Z,96917.94
2022-11-14T16:45:57.368Z,96945.34
2022-11-14T16:50:16.282Z,96945.00
2022-11-14T16:54:34.960Z,96933.69
2022-11-14T16:58:59.647Z,96944.38
2022-11-14T17:03:18.913Z,96928.59
2022-11-14T17:07:37.840Z,96930.94
2022-11-14T17:11:56.833Z,96938.91
2022-11-14T17:16:18.720Z,96941.19
2022-11-14T17:20:39.564Z,96958.00
2022-11-14T17:24:58.390Z,96949.47
2022-11-14T17:29:17.266Z,96938.03
2022-11-14T17:33:38.702Z,96931.91
2022-11-14T17:38:00.333Z,96944.50
2022-11-14T17:42:19.495Z,96942.59
2022-11-14T17:46:38.287Z,96927.47
2022-11-14T17:51:05.617Z,96941.44
2022-11-14T17:55:24.753Z,96941.22
2022-11-14T17:59:43.714Z,96940.00
2022-11-14T18:04:06.169Z,96945.69
2022-11-14T18:08:29.243Z,96946.22
2022-11-14T18:12:48.168Z,96936.53
2022-11-14T18:17:12.692Z,96951.88
2022-11-14T18:21:32.304Z,96940.00
2022-11-14T18:25:53.315Z,96948.38
2022-11-14T18:30:34.692Z,96960.50
2022-11-14T18:34:52.252Z,96954.22
2022-11-14T18:39:11.489Z,96958.69
2022-11-14T18:43:34.765Z,96961.53
2022-11-14T18:47:53.312Z,96959.25
2022-11-14T18:52:17.235Z,96946.06
2022-11-14T18:56:36.348Z,96946.44
2022-11-14T19:00:57.359Z,96947.47
2022-11-14T19:05:16.466Z,96955.97
2022-11-14T19:09:35.608Z,96949.31
2022-11-14T19:13:54.284Z,96953.28
2022-11-14T19:18:15.617Z,96942.72
2022-11-14T19:22:34.920Z,96967.59
2022-11-14T19:26:53.540Z,96970.69
2022-11-14T19:31:13.473Z,96950.19
2022-11-14T19:35:34.635Z,96972.44
2022-11-14T19:39:55.592Z,96970.69
2022-11-14T19:44:14.267Z,96955.19
2022-11-14T19:48:32.776Z,96979.63
2022-11-14T19:52:54.831Z,96975.28
2022-11-14T19:57:13.679Z,96981.47
2022-11-14T20:01:32.500Z,96948.28
2022-11-14T20:06:45.275Z,96932.50
2022-11-14T20:12:02.458Z,96977.72
2022-11-14T20:17:22.175Z,96982.19
2022-11-14T20:28:11.123Z,96855.50
2022-11-14T21:10:45.971Z,96839.50
2022-11-14T21:15:52.287Z,96881.13
2022-11-14T21:25:41.220Z,96858.50
2022-11-14T21:30:00.559Z,96946.25
2022-11-14T21:34:19.956Z,96962.13
2022-11-14T21:38:38.539Z,96967.78
2022-11-14T21:42:59.630Z,96963.53
2022-11-14T21:47:18.192Z,96963.91
2022-11-14T21:51:36.793Z,96959.97
2022-11-14T21:55:55.907Z,96974.28
2022-11-14T22:00:18.741Z,96966.69
2022-11-14T22:04:39.129Z,96957.59
2022-11-14T22:08:58.873Z,96974.22
2022-11-14T22:13:17.880Z,96955.44
2022-11-14T22:17:40.749Z,96952.31
2022-11-14T22:21:59.828Z,96975.50
2022-11-14T22:26:18.789Z,96963.41
2022-11-14T22:30:37.206Z,96972.25
2022-11-14T22:34:58.240Z,96959.72
2022-11-14T22:39:16.998Z,96972.50
2022-11-14T22:43:37.426Z,96973.09
2022-11-14T22:48:00.392Z,96981.97
2022-11-14T22:52:21.419Z,96973.56
2022-11-14T22:56:39.973Z,96975.03
2022-11-14T23:00:59.015Z,96976.06
2022-11-14T23:05:17.721Z,96969.25
2022-11-14T23:09:39.306Z,96980.56
2022-11-14T23:14:00.447Z,96980.13
2022-11-14T23:18:19.580Z,96983.69
2022-11-14T23:22:39.867Z,96977.91
2022-11-14T23:27:00.837Z,96980.13
2022-11-14T23:31:19.840Z,96977.94
2022-11-14T23:35:38.228Z,96973.66
2022-11-14T23:39:56.773Z,96972.25
2022-11-14T23:44:18.469Z,96956.97
2022-11-14T23:48:37.229Z,96945.47
2022-11-14T23:52:55.943Z,96948.44
2022-11-14T23:57:14.425Z,96948.88
